createdAt,value
2023-02-27T00:00:09.349Z,-2.72
2023-02-27T00:00:19.622Z,-2.72
2023-02-27T00:00:29.886Z,-2.72
2023-02-27T00:00:40.151Z,-2.70
2023-02-27T00:00:50.421Z,-2.72
2023-02-27T00:01:00.690Z,-2.72
2023-02-27T00:01:10.964Z,-2.72
2023-02-27T00:01:21.228Z,-2.75
2023-02-27T00:01:31.509Z,-2.73
2023-02-27T00:01:41.764Z,-2.73
2023-02-27T00:01:52.037Z,-2.75
2023-02-27T00:02:02.310Z,-2.73
2023-02-27T00:02:12.597Z,-2.75
2023-02-27T00:02:22.887Z,-2.76
2023-02-27T00:02:33.162Z,-2.75
2023-02-27T00:02:43.455Z,-2.76
2023-02-27T00:02:53.774Z,-2.76
2023-02-27T00:03:04.060Z,-2.76
2023-02-27T00:03:14.324Z,-2.76
2023-02-27T00:03:24.597Z,-2.78
2023-02-27T00:03:34.910Z,-2.78
2023-02-27T00:03:45.151Z,-2.78
2023-02-27T00:03:55.510Z,-2.80
2023-02-27T00:04:05.819Z,-2.80
2023-02-27T00:04:16.115Z,-2.78
2023-02-27T00:04:26.374Z,-2.78
2023-02-27T00:04:36.647Z,-2.81
2023-02-27T00:04:46.918Z,-2.80
2023-02-27T00:04:57.182Z,-2.80
2023-02-27T00:05:07.456Z,-2.80
2023-02-27T00:05:17.732Z,-2.80
2023-02-27T00:05:28.010Z,-2.81
2023-02-27T00:05:38.274Z,-2.80
2023-02-27T00:05:48.574Z,-2.81
2023-02-27T00:05:58.823Z,-2.81
2023-02-27T00:06:09.095Z,-2.80
2023-02-27T00:06:19.360Z,-2.80
2023-02-27T00:06:29.638Z,-2.83
2023-02-27T00:06:39.905Z,-2.81
2023-02-27T00:06:50.188Z,-2.83
2023-02-27T00:07:00.473Z,-2.84
2023-02-27T00:07:10.720Z,-2.83
2023-02-27T00:07:20.989Z,-2.84
2023-02-27T00:07:31.259Z,-2.83
2023-02-27T00:07:41.605Z,-2.83
2023-02-27T00:07:51.861Z,-2.84
2023-02-27T00:08:02.138Z,-2.83
2023-02-27T00:08:12.406Z,-2.84
2023-02-27T00:08:22.674Z,-2.86
2023-02-27T00:08:32.999Z,-2.86
2023-02-27T00:08:43.285Z,-2.83
2023-02-27T00:08:53.638Z,-2.84
2023-02-27T00:09:03.962Z,-2.86
2023-02-27T00:09:14.224Z,-2.86
2023-02-27T00:09:24.494Z,-2.84
2023-02-27T00:09:34.765Z,-2.87
2023-02-27T00:09:45.029Z,-2.87
2023-02-27T00:09:55.322Z,-2.86
2023-02-27T00:10:05.569Z,-2.87
2023-02-27T00:10:15.839Z,-2.86
2023-02-27T00:10:26.112Z,-2.87
2023-02-27T00:10:36.388Z,-2.87
2023-02-27T00:10:46.657Z,-2.87
2023-02-27T00:10:56.929Z,-2.89
2023-02-27T00:11:07.189Z,-2.87
2023-02-27T00:11:17.463Z,-2.89
2023-02-27T00:11:28.110Z,-2.89
2023-02-27T00:11:37.977Z,-2.89
2023-02-27T00:11:48.249Z,-2.89
2023-02-27T00:11:58.516Z,-2.89
2023-02-27T00:12:08.785Z,-2.90
2023-02-27T00:12:19.053Z,-2.90
2023-02-27T00:12:29.328Z,-2.87
2023-02-27T00:12:39.596Z,-2.89
2023-02-27T00:12:49.880Z,-2.90
2023-02-27T00:13:00.145Z,-2.91
2023-02-27T00:13:10.413Z,-2.90
2023-02-27T00:13:20.685Z,-2.91
2023-02-27T00:13:30.955Z,-2.89
2023-02-27T00:13:41.227Z,-2.93
2023-02-27T00:13:51.511Z,-2.91
2023-02-27T00:14:01.769Z,-2.91
2023-02-27T00:14:12.052Z,-2.91
2023-02-27T00:14:22.312Z,-2.91
2023-02-27T00:14:32.600Z,-2.94
2023-02-27T00:14:42.855Z,-2.90
2023-02-27T00:14:53.128Z,-2.94
2023-02-27T00:15:03.388Z,-2.93
2023-02-27T00:15:13.665Z,-2.93
2023-02-27T00:15:23.926Z,-2.93
2023-02-27T00:15:34.195Z,-2.93
2023-02-27T00:15:44.505Z,-2.94
2023-02-27T00:15:54.762Z,-2.94
2023-02-27T00:16:05.154Z,-2.94
2023-02-27T00:16:15.457Z,-2.93
2023-02-27T00:16:25.767Z,-2.94
2023-02-27T00:16:36.027Z,-2.94
2023-02-27T00:16:46.295Z,-2.96
2023-02-27T00:16:56.567Z,-2.96
2023-02-27T00:17:06.839Z,-2.96
2023-02-27T00:17:17.107Z,-2.96
2023-02-27T00:17:27.364Z,-2.94
2023-02-27T00:17:37.642Z,-2.98
2023-02-27T00:17:47.909Z,-2.98
2023-02-27T00:17:58.169Z,-2.98
2023-02-27T00:18:08.452Z,-2.98
2023-02-27T00:18:18.733Z,-2.99
2023-02-27T00:18:28.994Z,-2.99
2023-02-27T00:18:39.263Z,-2.98
2023-02-27T00:18:49.526Z,-2.99
2023-02-27T00:18:59.796Z,-2.99
2023-02-27T00:19:10.078Z,-2.99
2023-02-27T00:19:20.338Z,-2.99
2023-02-27T00:19:30.605Z,-3.01
2023-02-27T00:19:40.877Z,-3.01
2023-02-27T00:19:51.153Z,-3.02
2023-02-27T00:20:01.413Z,-3.01
2023-02-27T00:20:11.694Z,-3.01
2023-02-27T00:20:21.951Z,-3.01
2023-02-27T00:20:32.227Z,-3.02
2023-02-27T00:20:42.493Z,-3.04
2023-02-27T00:20:52.763Z,-3.02
2023-02-27T00:21:03.090Z,-3.02
2023-02-27T00:21:13.313Z,-3.01
2023-02-27T00:21:23.842Z,-3.04
2023-02-27T00:21:36.491Z,-3.04
2023-02-27T00:21:44.232Z,-3.04
2023-02-27T00:21:54.508Z,-3.04
2023-02-27T00:22:04.852Z,-3.05
2023-02-27T00:22:15.071Z,-3.05
2023-02-27T00:22:25.371Z,-3.04
2023-02-27T00:22:35.615Z,-3.07
2023-02-27T00:22:45.889Z,-3.05
2023-02-27T00:22:56.159Z,-3.08
2023-02-27T00:23:06.440Z,-3.05
2023-02-27T00:23:16.708Z,-3.05
2023-02-27T00:23:26.972Z,-3.05
2023-02-27T00:23:37.272Z,-3.05
2023-02-27T00:23:47.527Z,-3.07
2023-02-27T00:23:57.788Z,-3.08
2023-02-27T00:24:08.072Z,-3.07
2023-02-27T00:24:18.333Z,-3.08
2023-02-27T00:24:28.598Z,-3.08
2023-02-27T00:24:38.871Z,-3.08
2023-02-27T00:24:49.136Z,-3.11
2023-02-27T00:24:59.506Z,-3.08
2023-02-27T00:25:09.765Z,-3.08
2023-02-27T00:25:20.013Z,-3.09
2023-02-27T00:25:30.288Z,-3.09
2023-02-27T00:25:40.553Z,-3.09
2023-02-27T00:25:50.821Z,-3.11
2023-02-27T00:26:01.183Z,-3.11
2023-02-27T00:26:11.420Z,-3.11
2023-02-27T00:26:21.680Z,-3.11
2023-02-27T00:26:31.950Z,-3.11
2023-02-27T00:26:42.219Z,-3.12
2023-02-27T00:26:52.498Z,-3.12
2023-02-27T00:27:02.758Z,-3.14
2023-02-27T00:27:13.030Z,-3.11
2023-02-27T00:27:23.304Z,-3.12
2023-02-27T00:27:33.573Z,-3.12
2023-02-27T00:27:43.858Z,-3.15
2023-02-27T00:27:54.126Z,-3.14
2023-02-27T00:28:04.447Z,-3.14
2023-02-27T00:28:14.667Z,-3.14
2023-02-27T00:28:24.941Z,-3.15
2023-02-27T00:28:35.210Z,-3.14
2023-02-27T00:28:45.477Z,-3.17
2023-02-27T00:28:55.751Z,-3.15
2023-02-27T00:29:06.014Z,-3.17
2023-02-27T00:29:16.283Z,-3.15
2023-02-27T00:29:26.556Z,-3.19
2023-02-27T00:29:36.835Z,-3.15
2023-02-27T00:29:47.094Z,-3.17
2023-02-27T00:29:57.364Z,-3.19
2023-02-27T00:30:07.636Z,-3.19
2023-02-27T00:30:17.899Z,-3.19
2023-02-27T00:30:28.209Z,-3.19
2023-02-27T00:30:38.478Z,-3.20
2023-02-27T00:30:48.739Z,-3.20
2023-02-27T00:30:59.118Z,-3.19
2023-02-27T00:31:09.535Z,-3.20
2023-02-27T00:31:19.847Z,-3.20
2023-02-27T00:31:30.511Z,-3.20
2023-02-27T00:31:40.411Z,-3.20
2023-02-27T00:31:50.748Z,-3.20
2023-02-27T00:32:01.072Z,-3.20
2023-02-27T00:32:11.401Z,-3.22
2023-02-27T00:32:21.735Z,-3.22
2023-02-27T00:32:32.093Z,-3.22
2023-02-27T00:32:42.334Z,-3.20
2023-02-27T00:32:52.599Z,-3.22
2023-02-27T00:33:02.888Z,-3.23
2023-02-27T00:33:13.161Z,-3.23
2023-02-27T00:33:23.432Z,-3.23
2023-02-27T00:33:33.696Z,-3.23
2023-02-27T00:33:43.976Z,-3.23
2023-02-27T00:33:54.242Z,-3.23
2023-02-27T00:34:04.536Z,-3.25
2023-02-27T00:34:14.786Z,-3.25
2023-02-27T00:34:25.057Z,-3.26
2023-02-27T00:34:35.333Z,-3.23
2023-02-27T00:34:45.609Z,-3.25
2023-02-27T00:34:55.870Z,-3.26
2023-02-27T00:35:06.165Z,-3.26
2023-02-27T00:35:16.413Z,-3.26
2023-02-27T00:35:26.692Z,-3.26
2023-02-27T00:35:36.956Z,-3.26
2023-02-27T00:35:47.222Z,-3.25
2023-02-27T00:35:57.492Z,-3.26
2023-02-27T00:36:07.768Z,-3.25
2023-02-27T00:36:18.051Z,-3.26
2023-02-27T00:36:28.298Z,-3.26
2023-02-27T00:36:38.576Z,-3.27
2023-02-27T00:36:48.844Z,-3.29
2023-02-27T00:36:59.106Z,-3.27
2023-02-27T00:37:09.374Z,-3.29
2023-02-27T00:37:19.657Z,-3.29
2023-02-27T00:37:29.925Z,-3.29
2023-02-27T00:37:40.183Z,-3.29
2023-02-27T00:37:50.451Z,-3.29
2023-02-27T00:38:00.742Z,-3.30
2023-02-27T00:38:11.021Z,-3.32
2023-02-27T00:38:21.294Z,-3.29
2023-02-27T00:38:31.556Z,-3.29
2023-02-27T00:38:41.835Z,-3.32
2023-02-27T00:38:52.095Z,-3.29
2023-02-27T00:39:02.367Z,-3.32
2023-02-27T00:39:12.647Z,-3.30
2023-02-27T00:39:22.968Z,-3.32
2023-02-27T00:39:33.240Z,-3.32
2023-02-27T00:39:43.484Z,-3.32
2023-02-27T00:39:53.750Z,-3.33
2023-02-27T00:40:04.048Z,-3.32
2023-02-27T00:40:14.312Z,-3.33
2023-02-27T00:40:24.566Z,-3.33
2023-02-27T00:40:34.834Z,-3.33
2023-02-27T00:40:45.106Z,-3.33
2023-02-27T00:40:55.382Z,-3.33
2023-02-27T00:41:05.649Z,-3.33
2023-02-27T00:41:15.920Z,-3.36
2023-02-27T00:41:26.556Z,-3.33
2023-02-27T00:41:36.548Z,-3.36
2023-02-27T00:41:46.821Z,-3.36
2023-02-27T00:41:57.099Z,-3.36
2023-02-27T00:42:07.360Z,-3.33
2023-02-27T00:42:17.670Z,-3.36
2023-02-27T00:42:27.910Z,-3.38
2023-02-27T00:42:38.198Z,-3.37
2023-02-27T00:42:48.456Z,-3.36
2023-02-27T00:42:58.729Z,-3.37
2023-02-27T00:43:09.023Z,-3.37
2023-02-27T00:43:19.324Z,-3.37
2023-02-27T00:43:29.602Z,-3.37
2023-02-27T00:43:39.859Z,-3.40
2023-02-27T00:43:50.135Z,-3.38
2023-02-27T00:44:00.402Z,-3.38
2023-02-27T00:44:10.675Z,-3.40
2023-02-27T00:44:20.942Z,-3.40
2023-02-27T00:44:31.210Z,-3.41
2023-02-27T00:44:41.478Z,-3.40
2023-02-27T00:44:51.747Z,-3.40
2023-02-27T00:45:02.015Z,-3.40
2023-02-27T00:45:12.301Z,-3.41
2023-02-27T00:45:22.573Z,-3.41
2023-02-27T00:45:32.832Z,-3.40
2023-02-27T00:45:43.105Z,-3.41
2023-02-27T00:45:53.395Z,-3.41
2023-02-27T00:46:03.656Z,-3.41
2023-02-27T00:46:13.934Z,-3.43
2023-02-27T00:46:24.235Z,-3.43
2023-02-27T00:46:34.540Z,-3.40
2023-02-27T00:46:44.806Z,-3.43
2023-02-27T00:46:55.157Z,-3.44
2023-02-27T00:47:05.419Z,-3.43
2023-02-27T00:47:15.738Z,-3.41
2023-02-27T00:47:26.000Z,-3.44
2023-02-27T00:47:36.270Z,-3.43
2023-02-27T00:47:46.564Z,-3.46
2023-02-27T00:47:56.803Z,-3.44
2023-02-27T00:48:07.086Z,-3.44
2023-02-27T00:48:17.356Z,-3.44
2023-02-27T00:48:27.715Z,-3.43
2023-02-27T00:48:37.944Z,-3.46
2023-02-27T00:48:48.215Z,-3.47
2023-02-27T00:48:58.509Z,-3.46
2023-02-27T00:49:08.755Z,-3.46
2023-02-27T00:49:19.021Z,-3.46
2023-02-27T00:49:29.289Z,-3.46
2023-02-27T00:49:39.565Z,-3.47
2023-02-27T00:49:49.849Z,-3.46
2023-02-27T00:50:00.132Z,-3.48
2023-02-27T00:50:10.386Z,-3.47
2023-02-27T00:50:20.664Z,-3.48
2023-02-27T00:50:31.047Z,-3.48
2023-02-27T00:50:41.277Z,-3.48
2023-02-27T00:50:51.575Z,-3.47
2023-02-27T00:51:01.831Z,-3.48
2023-02-27T00:51:12.096Z,-3.48
2023-02-27T00:51:22.365Z,-3.48
2023-02-27T00:51:32.635Z,-3.50
2023-02-27T00:51:42.917Z,-3.50
2023-02-27T00:51:53.178Z,-3.50
2023-02-27T00:52:03.450Z,-3.50
2023-02-27T00:52:13.713Z,-3.50
2023-02-27T00:52:23.989Z,-3.51
2023-02-27T00:52:34.267Z,-3.50
2023-02-27T00:52:44.529Z,-3.48
2023-02-27T00:52:54.934Z,-3.50
2023-02-27T00:53:05.248Z,-3.51
2023-02-27T00:53:15.496Z,-3.53
2023-02-27T00:53:25.767Z,-3.53
2023-02-27T00:53:36.039Z,-3.50
2023-02-27T00:53:46.313Z,-3.53
2023-02-27T00:53:56.584Z,-3.50
2023-02-27T00:54:06.845Z,-3.53
2023-02-27T00:54:17.130Z,-3.51
2023-02-27T00:54:27.387Z,-3.55
2023-02-27T00:54:37.665Z,-3.55
2023-02-27T00:54:47.924Z,-3.55
2023-02-27T00:54:58.191Z,-3.55
2023-02-27T00:55:08.501Z,-3.56
2023-02-27T00:55:18.752Z,-3.55
2023-02-27T00:55:29.022Z,-3.55
2023-02-27T00:55:39.309Z,-3.53
2023-02-27T00:55:49.592Z,-3.55
2023-02-27T00:55:59.837Z,-3.56
2023-02-27T00:56:10.108Z,-3.56
2023-02-27T00:56:20.379Z,-3.56
2023-02-27T00:56:30.653Z,-3.58
2023-02-27T00:56:40.941Z,-3.58
2023-02-27T00:56:51.199Z,-3.58
2023-02-27T00:57:01.467Z,-3.58
2023-02-27T00:57:11.749Z,-3.58
2023-02-27T00:57:22.062Z,-3.58
2023-02-27T00:57:32.373Z,-3.56
2023-02-27T00:57:42.701Z,-3.59
2023-02-27T00:57:52.958Z,-3.59
2023-02-27T00:58:03.238Z,-3.58
2023-02-27T00:58:13.527Z,-3.59
2023-02-27T00:58:23.773Z,-3.58
2023-02-27T00:58:34.044Z,-3.61
2023-02-27T00:58:44.318Z,-3.61
2023-02-27T00:58:54.604Z,-3.61
2023-02-27T00:59:04.912Z,-3.61
2023-02-27T00:59:15.210Z,-3.62
2023-02-27T00:59:25.465Z,-3.61
2023-02-27T00:59:35.729Z,-3.59
2023-02-27T00:59:45.996Z,-3.61
2023-02-27T00:59:56.266Z,-3.61
2023-02-27T01:00:06.541Z,-3.62
2023-02-27T01:00:16.817Z,-3.62
2023-02-27T01:00:27.102Z,-3.64
2023-02-27T01:00:37.368Z,-3.62
2023-02-27T01:00:47.661Z,-3.62
2023-02-27T01:00:57.929Z,-3.61
2023-02-27T01:01:08.295Z,-3.62
2023-02-27T01:01:18.547Z,-3.64
2023-02-27T01:01:29.030Z,-3.64
2023-02-27T01:01:39.178Z,-3.64
2023-02-27T01:01:49.428Z,-3.65
2023-02-27T01:01:59.700Z,-3.64
2023-02-27T01:02:09.970Z,-3.65
2023-02-27T01:02:20.335Z,-3.66
2023-02-27T01:02:30.703Z,-3.65
2023-02-27T01:02:40.981Z,-3.66
2023-02-27T01:02:51.248Z,-3.66
2023-02-27T01:03:01.520Z,-3.66
2023-02-27T01:03:11.810Z,-3.68
2023-02-27T01:03:22.067Z,-3.66
2023-02-27T01:03:32.336Z,-3.68
2023-02-27T01:03:42.603Z,-3.66
2023-02-27T01:03:52.874Z,-3.71
2023-02-27T01:04:03.176Z,-3.68
2023-02-27T01:04:13.442Z,-3.69
2023-02-27T01:04:23.720Z,-3.66
2023-02-27T01:04:33.985Z,-3.69
2023-02-27T01:04:44.246Z,-3.69
2023-02-27T01:04:54.519Z,-3.69
2023-02-27T01:05:04.786Z,-3.69
2023-02-27T01:05:15.053Z,-3.71
2023-02-27T01:05:25.325Z,-3.71
2023-02-27T01:05:35.599Z,-3.74
2023-02-27T01:05:45.868Z,-3.74
2023-02-27T01:05:56.134Z,-3.71
2023-02-27T01:06:06.407Z,-3.74
2023-02-27T01:06:16.673Z,-3.71
2023-02-27T01:06:26.944Z,-3.71
2023-02-27T01:06:37.214Z,-3.74
2023-02-27T01:06:47.487Z,-3.74
2023-02-27T01:06:57.750Z,-3.74
2023-02-27T01:07:08.024Z,-3.74
2023-02-27T01:07:18.297Z,-3.74
2023-02-27T01:07:28.576Z,-3.74
2023-02-27T01:07:38.838Z,-3.75
2023-02-27T01:07:49.211Z,-3.75
2023-02-27T01:07:59.462Z,-3.74
2023-02-27T01:08:09.745Z,-3.74
2023-02-27T01:08:20.020Z,-3.74
2023-02-27T01:08:30.276Z,-3.75
2023-02-27T01:08:40.544Z,-3.75
2023-02-27T01:08:50.816Z,-3.77
2023-02-27T01:09:01.087Z,-3.77
2023-02-27T01:09:11.376Z,-3.77
2023-02-27T01:09:21.643Z,-3.75
2023-02-27T01:09:31.922Z,-3.77
2023-02-27T01:09:42.227Z,-3.75
2023-02-27T01:09:52.499Z,-3.77
2023-02-27T01:10:02.751Z,-3.78
2023-02-27T01:10:13.031Z,-3.77
2023-02-27T01:10:23.281Z,-3.78
2023-02-27T01:10:33.550Z,-3.77
2023-02-27T01:10:43.816Z,-3.80
2023-02-27T01:10:54.098Z,-3.80
2023-02-27T01:11:04.356Z,-3.78
2023-02-27T01:11:14.626Z,-3.78
2023-02-27T01:11:25.192Z,-3.80
2023-02-27T01:11:35.197Z,-3.80
2023-02-27T01:11:45.475Z,-3.80
2023-02-27T01:11:55.733Z,-3.81
2023-02-27T01:12:06.006Z,-3.81
2023-02-27T01:12:16.275Z,-3.81
2023-02-27T01:12:26.549Z,-3.81
2023-02-27T01:12:36.817Z,-3.83
2023-02-27T01:12:47.092Z,-3.81
2023-02-27T01:12:57.368Z,-3.83
2023-02-27T01:13:09.017Z,-3.81
2023-02-27T01:13:17.973Z,-3.83
2023-02-27T01:13:28.228Z,-3.81
2023-02-27T01:13:38.500Z,-3.83
2023-02-27T01:13:48.772Z,-3.83
2023-02-27T01:13:59.040Z,-3.83
2023-02-27T01:14:09.320Z,-3.83
2023-02-27T01:14:19.594Z,-3.83
2023-02-27T01:14:29.862Z,-3.84
2023-02-27T01:14:40.149Z,-3.84
2023-02-27T01:14:50.417Z,-3.85
2023-02-27T01:15:00.753Z,-3.84
2023-02-27T01:15:11.021Z,-3.84
2023-02-27T01:15:21.260Z,-3.84
2023-02-27T01:15:31.529Z,-3.85
2023-02-27T01:15:41.802Z,-3.84
2023-02-27T01:15:52.073Z,-3.85
2023-02-27T01:16:02.401Z,-3.85
2023-02-27T01:16:12.695Z,-3.87
2023-02-27T01:16:23.040Z,-3.85
2023-02-27T01:16:33.313Z,-3.85
2023-02-27T01:16:43.610Z,-3.87
2023-02-27T01:16:53.840Z,-3.87
2023-02-27T01:17:04.120Z,-3.85
2023-02-27T01:17:14.399Z,-3.85
2023-02-27T01:17:24.665Z,-3.85
2023-02-27T01:17:34.933Z,-3.88
2023-02-27T01:17:45.206Z,-3.88
2023-02-27T01:17:55.470Z,-3.88
2023-02-27T01:18:05.750Z,-3.87
2023-02-27T01:18:16.027Z,-3.88
2023-02-27T01:18:26.307Z,-3.88
2023-02-27T01:18:36.638Z,-3.90
2023-02-27T01:18:46.904Z,-3.88
2023-02-27T01:18:57.160Z,-3.90
2023-02-27T01:19:07.425Z,-3.90
2023-02-27T01:19:17.698Z,-3.88
2023-02-27T01:19:27.963Z,-3.90
2023-02-27T01:19:38.235Z,-3.90
2023-02-27T01:19:48.600Z,-3.90
2023-02-27T01:19:58.822Z,-3.91
2023-02-27T01:20:09.091Z,-3.91
2023-02-27T01:20:19.362Z,-3.90
2023-02-27T01:20:29.630Z,-3.91
2023-02-27T01:20:39.924Z,-3.90
2023-02-27T01:20:50.172Z,-3.91
2023-02-27T01:21:00.439Z,-3.94
2023-02-27T01:21:10.715Z,-3.94
2023-02-27T01:21:21.017Z,-3.95
2023-02-27T01:21:31.293Z,-3.94
2023-02-27T01:21:41.566Z,-3.94
2023-02-27T01:21:51.837Z,-3.94
2023-02-27T01:22:02.112Z,-3.95
2023-02-27T01:22:12.374Z,-3.94
2023-02-27T01:22:22.653Z,-3.94
2023-02-27T01:22:32.922Z,-3.95
2023-02-27T01:22:43.183Z,-3.95
2023-02-27T01:22:53.464Z,-3.96
2023-02-27T01:23:03.745Z,-3.95
2023-02-27T01:23:14.031Z,-3.96
2023-02-27T01:23:24.304Z,-3.96
2023-02-27T01:23:34.571Z,-3.98
2023-02-27T01:23:44.843Z,-3.96
2023-02-27T01:23:55.112Z,-3.96
2023-02-27T01:24:05.423Z,-3.96
2023-02-27T01:24:15.695Z,-3.98
2023-02-27T01:24:25.970Z,-3.98
2023-02-27T01:24:36.242Z,-3.98
2023-02-27T01:24:46.506Z,-3.96
2023-02-27T01:24:56.771Z,-3.98
2023-02-27T01:25:07.039Z,-4.01
2023-02-27T01:25:17.337Z,-3.99
2023-02-27T01:25:27.578Z,-3.98
2023-02-27T01:25:37.852Z,-3.99
2023-02-27T01:25:48.122Z,-3.99
2023-02-27T01:25:58.407Z,-4.01
2023-02-27T01:26:08.662Z,-3.99
2023-02-27T01:26:18.937Z,-4.01
2023-02-27T01:26:29.199Z,-3.99
2023-02-27T01:26:39.470Z,-3.99
2023-02-27T01:26:49.738Z,-4.01
2023-02-27T01:27:00.008Z,-3.99
2023-02-27T01:27:10.280Z,-4.02
2023-02-27T01:27:20.576Z,-4.01
2023-02-27T01:27:30.825Z,-4.04
2023-02-27T01:27:41.083Z,-4.01
2023-02-27T01:27:51.359Z,-4.02
2023-02-27T01:28:01.641Z,-4.02
2023-02-27T01:28:11.912Z,-4.02
2023-02-27T01:28:22.176Z,-4.04
2023-02-27T01:28:32.444Z,-4.02
2023-02-27T01:28:42.715Z,-4.02
2023-02-27T01:28:53.010Z,-4.04
2023-02-27T01:29:05.942Z,-4.04
2023-02-27T01:29:13.587Z,-4.02
2023-02-27T01:29:23.892Z,-4.02
2023-02-27T01:29:34.156Z,-4.04
2023-02-27T01:29:44.443Z,-4.04
2023-02-27T01:29:54.702Z,-4.02
2023-02-27T01:30:04.987Z,-4.04
2023-02-27T01:30:15.241Z,-4.04
2023-02-27T01:30:25.542Z,-4.04
2023-02-27T01:30:35.826Z,-4.05
2023-02-27T01:30:46.124Z,-4.05
2023-02-27T01:30:56.461Z,-4.05
2023-02-27T01:31:06.695Z,-4.06
2023-02-27T01:31:17.057Z,-4.06
2023-02-27T01:31:27.698Z,-4.05
2023-02-27T01:31:37.789Z,-4.05
2023-02-27T01:31:48.182Z,-4.06
2023-02-27T01:31:58.601Z,-4.06
2023-02-27T01:32:08.859Z,-4.05
2023-02-27T01:32:19.096Z,-4.06
2023-02-27T01:32:29.420Z,-4.06
2023-02-27T01:32:39.800Z,-4.06
2023-02-27T01:32:50.063Z,-4.06
2023-02-27T01:33:00.343Z,-4.06
2023-02-27T01:33:10.619Z,-4.06
2023-02-27T01:33:20.886Z,-4.06
2023-02-27T01:33:31.156Z,-4.08
2023-02-27T01:33:41.426Z,-4.08
2023-02-27T01:33:51.694Z,-4.09
2023-02-27T01:34:01.970Z,-4.08
2023-02-27T01:34:12.238Z,-4.09
2023-02-27T01:34:22.502Z,-4.09
2023-02-27T01:34:34.304Z,-4.09
2023-02-27T01:34:43.125Z,-4.12
2023-02-27T01:34:53.416Z,-4.13
2023-02-27T01:35:03.671Z,-4.12
2023-02-27T01:35:13.942Z,-4.12
2023-02-27T01:35:24.217Z,-4.12
2023-02-27T01:35:34.561Z,-4.13
2023-02-27T01:35:44.833Z,-4.09
2023-02-27T01:35:55.104Z,-4.12
2023-02-27T01:36:05.374Z,-4.13
2023-02-27T01:36:15.636Z,-4.09
2023-02-27T01:36:25.910Z,-4.13
2023-02-27T01:36:36.181Z,-4.09
2023-02-27T01:36:46.450Z,-4.13
2023-02-27T01:36:56.724Z,-4.13
2023-02-27T01:37:06.994Z,-4.13
2023-02-27T01:37:17.289Z,-4.13
2023-02-27T01:37:27.589Z,-4.14
2023-02-27T01:37:37.850Z,-4.14
2023-02-27T01:37:48.106Z,-4.14
2023-02-27T01:37:58.397Z,-4.14
2023-02-27T01:38:08.672Z,-4.17
2023-02-27T01:38:18.941Z,-4.17
2023-02-27T01:38:29.262Z,-4.16
2023-02-27T01:38:39.503Z,-4.16
2023-02-27T01:38:49.774Z,-4.14
2023-02-27T01:39:00.109Z,-4.16
2023-02-27T01:39:10.417Z,-4.16
2023-02-27T01:39:20.683Z,-4.14
2023-02-27T01:39:30.930Z,-4.17
2023-02-27T01:39:41.242Z,-4.16
2023-02-27T01:39:51.489Z,-4.17
2023-02-27T01:40:01.743Z,-4.16
2023-02-27T01:40:12.026Z,-4.16
2023-02-27T01:40:22.323Z,-4.19
2023-02-27T01:40:32.570Z,-4.19
2023-02-27T01:40:42.843Z,-4.20
2023-02-27T01:40:53.114Z,-4.19
2023-02-27T01:41:03.433Z,-4.19
2023-02-27T01:41:13.694Z,-4.19
2023-02-27T01:41:24.177Z,-4.19
2023-02-27T01:41:34.336Z,-4.20
2023-02-27T01:41:44.606Z,-4.19
2023-02-27T01:41:54.879Z,-4.20
2023-02-27T01:42:05.142Z,-4.20
2023-02-27T01:42:15.414Z,-4.20
2023-02-27T01:42:25.696Z,-4.22
2023-02-27T01:42:35.964Z,-4.23
2023-02-27T01:42:46.280Z,-4.22
2023-02-27T01:42:56.543Z,-4.22
2023-02-27T01:43:06.820Z,-4.22
2023-02-27T01:43:17.111Z,-4.20
2023-02-27T01:43:27.361Z,-4.22
2023-02-27T01:43:37.680Z,-4.22
2023-02-27T01:43:48.012Z,-4.23
2023-02-27T01:43:58.314Z,-4.20
2023-02-27T01:44:08.598Z,-4.24
2023-02-27T01:44:18.837Z,-4.23
2023-02-27T01:44:29.142Z,-4.22
2023-02-27T01:44:39.391Z,-4.23
2023-02-27T01:44:49.645Z,-4.23
2023-02-27T01:44:59.923Z,-4.23
2023-02-27T01:45:10.191Z,-4.23
2023-02-27T01:45:20.463Z,-4.22
2023-02-27T01:45:30.806Z,-4.23
2023-02-27T01:45:41.117Z,-4.24
2023-02-27T01:45:51.388Z,-4.24
2023-02-27T01:46:01.670Z,-4.23
2023-02-27T01:46:11.938Z,-4.23
2023-02-27T01:46:22.246Z,-4.23
2023-02-27T01:46:32.530Z,-4.26
2023-02-27T01:46:42.785Z,-4.24
2023-02-27T01:46:53.055Z,-4.26
2023-02-27T01:47:03.325Z,-4.26
2023-02-27T01:47:13.595Z,-4.27
2023-02-27T01:47:23.869Z,-4.26
2023-02-27T01:47:34.159Z,-4.27
2023-02-27T01:47:44.423Z,-4.26
2023-02-27T01:47:54.706Z,-4.26
2023-02-27T01:48:04.997Z,-4.27
2023-02-27T01:48:15.266Z,-4.27
2023-02-27T01:48:25.536Z,-4.27
2023-02-27T01:48:35.812Z,-4.30
2023-02-27T01:48:46.076Z,-4.30
2023-02-27T01:48:56.349Z,-4.30
2023-02-27T01:49:06.606Z,-4.31
2023-02-27T01:49:16.906Z,-4.30
2023-02-27T01:49:27.152Z,-4.30
2023-02-27T01:49:37.442Z,-4.31
2023-02-27T01:49:47.723Z,-4.31
2023-02-27T01:49:58.004Z,-4.31
2023-02-27T01:50:08.262Z,-4.31
2023-02-27T01:50:18.552Z,-4.30
2023-02-27T01:50:28.811Z,-4.31
2023-02-27T01:50:39.107Z,-4.34
2023-02-27T01:50:49.367Z,-4.31
2023-02-27T01:50:59.634Z,-4.33
2023-02-27T01:51:09.907Z,-4.33
2023-02-27T01:51:20.171Z,-4.33
2023-02-27T01:51:30.450Z,-4.33
2023-02-27T01:51:40.724Z,-4.33
2023-02-27T01:51:51.009Z,-4.34
2023-02-27T01:52:01.299Z,-4.33
2023-02-27T01:52:11.550Z,-4.34
2023-02-27T01:52:21.816Z,-4.34
2023-02-27T01:52:32.091Z,-4.34
2023-02-27T01:52:42.352Z,-4.35
2023-02-27T01:52:52.624Z,-4.34
2023-02-27T01:53:02.929Z,-4.37
2023-02-27T01:53:13.206Z,-4.34
2023-02-27T01:53:23.475Z,-4.35
2023-02-27T01:53:33.748Z,-4.35
2023-02-27T01:53:44.051Z,-4.35
2023-02-27T01:53:54.330Z,-4.37
2023-02-27T01:54:04.584Z,-4.38
2023-02-27T01:54:14.859Z,-4.37
2023-02-27T01:54:25.158Z,-4.34
2023-02-27T01:54:35.441Z,-4.37
2023-02-27T01:54:45.713Z,-4.37
2023-02-27T01:54:55.986Z,-4.37
2023-02-27T01:55:06.263Z,-4.37
2023-02-27T01:55:16.541Z,-4.37
2023-02-27T01:55:26.849Z,-4.38
2023-02-27T01:55:37.095Z,-4.38
2023-02-27T01:55:47.367Z,-4.40
2023-02-27T01:55:57.630Z,-4.38
2023-02-27T01:56:07.933Z,-4.40
2023-02-27T01:56:18.169Z,-4.38
2023-02-27T01:56:28.447Z,-4.38
2023-02-27T01:56:38.771Z,-4.38
2023-02-27T01:56:49.021Z,-4.37
2023-02-27T01:56:59.278Z,-4.40
2023-02-27T01:57:09.558Z,-4.40
2023-02-27T01:57:19.814Z,-4.41
2023-02-27T01:57:30.122Z,-4.41
2023-02-27T01:57:40.375Z,-4.40
2023-02-27T01:57:50.648Z,-4.41
2023-02-27T01:58:00.926Z,-4.41
2023-02-27T01:58:11.190Z,-4.42
2023-02-27T01:58:21.466Z,-4.42
2023-02-27T01:58:31.730Z,-4.44
2023-02-27T01:58:42.011Z,-4.41
2023-02-27T01:58:52.279Z,-4.42
2023-02-27T01:59:02.546Z,-4.42
2023-02-27T01:59:12.826Z,-4.42
2023-02-27T01:59:23.096Z,-4.42
2023-02-27T01:59:33.383Z,-4.41
2023-02-27T01:59:43.680Z,-4.42
2023-02-27T01:59:53.961Z,-4.42
2023-02-27T02:00:04.223Z,-4.41
2023-02-27T02:00:14.500Z,-4.44
2023-02-27T02:00:24.756Z,-4.42
2023-02-27T02:00:35.034Z,-4.45
2023-02-27T02:00:45.298Z,-4.44
2023-02-27T02:00:55.605Z,-4.45
2023-02-27T02:01:05.868Z,-4.45
2023-02-27T02:01:16.170Z,-4.44
2023-02-27T02:01:26.838Z,-4.45
2023-02-27T02:01:36.701Z,-4.45
2023-02-27T02:01:46.955Z,-4.44
2023-02-27T02:01:57.285Z,-4.45
2023-02-27T02:02:07.533Z,-4.45
2023-02-27T02:02:17.870Z,-4.45
2023-02-27T02:02:28.209Z,-4.47
2023-02-27T02:02:38.448Z,-4.47
2023-02-27T02:02:48.720Z,-4.47
2023-02-27T02:02:58.994Z,-4.47
2023-02-27T02:03:09.273Z,-4.49
2023-02-27T02:03:19.548Z,-4.49
2023-02-27T02:03:29.836Z,-4.47
2023-02-27T02:03:40.095Z,-4.47
2023-02-27T02:03:50.368Z,-4.51
2023-02-27T02:04:00.648Z,-4.47
2023-02-27T02:04:10.915Z,-4.51
2023-02-27T02:04:21.172Z,-4.47
2023-02-27T02:04:31.444Z,-4.51
2023-02-27T02:04:41.728Z,-4.51
2023-02-27T02:04:52.000Z,-4.51
2023-02-27T02:05:02.279Z,-4.51
2023-02-27T02:05:12.546Z,-4.51
2023-02-27T02:05:22.865Z,-4.49
2023-02-27T02:05:33.112Z,-4.51
2023-02-27T02:05:43.370Z,-4.51
2023-02-27T02:05:53.678Z,-4.51
2023-02-27T02:06:03.942Z,-4.51
2023-02-27T02:06:14.204Z,-4.52
2023-02-27T02:06:24.528Z,-4.53
2023-02-27T02:06:34.770Z,-4.52
2023-02-27T02:06:45.054Z,-4.52
2023-02-27T02:06:55.332Z,-4.52
2023-02-27T02:07:05.620Z,-4.52
2023-02-27T02:07:15.888Z,-4.55
2023-02-27T02:07:26.162Z,-4.53
2023-02-27T02:07:36.428Z,-4.55
2023-02-27T02:07:46.708Z,-4.53
2023-02-27T02:07:56.972Z,-4.55
2023-02-27T02:08:07.243Z,-4.53
2023-02-27T02:08:17.506Z,-4.55
2023-02-27T02:08:27.797Z,-4.55
2023-02-27T02:08:38.054Z,-4.56
2023-02-27T02:08:48.338Z,-4.55
2023-02-27T02:08:58.593Z,-4.55
2023-02-27T02:09:08.870Z,-4.56
2023-02-27T02:09:19.148Z,-4.56
2023-02-27T02:09:29.473Z,-4.56
2023-02-27T02:09:39.768Z,-4.56
2023-02-27T02:09:50.085Z,-4.58
2023-02-27T02:10:00.341Z,-4.56
2023-02-27T02:10:10.631Z,-4.56
2023-02-27T02:10:20.895Z,-4.56
2023-02-27T02:10:31.182Z,-4.56
2023-02-27T02:10:41.441Z,-4.59
2023-02-27T02:10:51.733Z,-4.56
2023-02-27T02:11:02.019Z,-4.59
2023-02-27T02:11:12.302Z,-4.58
2023-02-27T02:11:22.549Z,-4.58
2023-02-27T02:11:32.820Z,-4.56
2023-02-27T02:11:43.100Z,-4.56
2023-02-27T02:11:53.373Z,-4.58
2023-02-27T02:12:03.635Z,-4.59
2023-02-27T02:12:13.911Z,-4.59
2023-02-27T02:12:24.186Z,-4.59